Time;durP1;ratioP1;P1;durP2;ratioP2;P2;SDS_P1;SDS_P2;PMS_P1;PMS_P2;Temp;Humidity;BMP_temperature;BMP_pressure;BME280_temperature;BME280_humidity;BME280_pressure;Samples;Min_cycle;Max_cycle;Signal;HPM_P1;HPM_P2
2022/07/01 00:00:04;;;;;;;10.82;7.32;;;25.20;99.90;;;;;;4960062;29;20095;-87
2022/07/01 00:02:39;;;;;;;10.60;7.65;;;25.20;99.90;;;;;;4956561;29;20039;-88
2022/07/01 00:05:05;;;;;;;13.13;7.35;;;25.20;99.90;;;;;;4954900;29;20035;-87
2022/07/01 00:07:47;;;;;;;13.93;7.13;;;25.20;99.90;;;;;;4952546;28;20107;-88
2022/07/01 00:10:13;;;;;;;10.23;6.93;;;25.20;99.90;;;;;;4951812;29;20063;-88
2022/07/01 00:12:39;;;;;;;10.88;7.88;;;25.20;99.90;;;;;;4952599;29;20024;-87
2022/07/01 00:15:05;;;;;;;17.95;7.80;;;25.10;99.90;;;;;;4956977;28;20083;-89
2022/07/01 00:17:31;;;;;;;14.85;7.78;;;25.00;99.90;;;;;;4955617;29;20492;-88
2022/07/01 00:19:57;;;;;;;15.95;7.38;;;25.00;99.90;;;;;;4950659;29;20036;-89
2022/07/01 00:22:23;;;;;;;13.95;7.97;;;24.90;99.90;;;;;;4953116;29;20016;-86
2022/07/01 00:24:49;;;;;;;14.02;8.18;;;24.80;99.90;;;;;;4989045;23;20103;-81
2022/07/01 00:27:15;;;;;;;12.70;8.23;;;24.80;99.90;;;;;;4953940;29;20209;-85
2022/07/01 00:29:41;;;;;;;11.88;8.00;;;24.70;99.90;;;;;;4947677;29;20122;-86
2022/07/01 00:32:07;;;;;;;11.50;8.07;;;24.60;99.90;;;;;;4945998;29;20075;-83
2022/07/01 00:34:33;;;;;;;12.18;8.10;;;24.50;99.90;;;;;;4956932;28;20043;-86
2022/07/01 00:36:59;;;;;;;12.60;7.82;;;24.50;99.90;;;;;;4944239;29;20071;-87
2022/07/01 00:39:25;;;;;;;13.70;8.10;;;24.40;99.90;;;;;;4945708;29;20035;-84
2022/07/01 00:41:51;;;;;;;10.77;7.88;;;24.40;99.90;;;;;;4944746;29;20028;-83
2022/07/01 00:44:20;;;;;;;12.50;7.53;;;24.40;99.90;;;;;;4945206;29;20508;-85
2022/07/01 00:46:49;;;;;;;9.52;7.05;;;24.40;99.90;;;;;;4945808;29;20035;-85
2022/07/01 00:49:16;;;;;;;9.25;6.63;;;24.40;99.90;;;;;;4959471;28;20107;-87
2022/07/01 00:51:43;;;;;;;12.40;6.90;;;24.60;99.90;;;;;;4943416;29;20388;-84
2022/07/01 00:54:10;;;;;;;9.82;6.70;;;24.60;99.90;;;;;;4946154;29;20035;-86
2022/07/01 00:56:36;;;;;;;7.72;6.80;;;24.70;99.90;;;;;;4948756;29;20032;-85
2022/07/01 00:59:02;;;;;;;10.48;6.72;;;24.70;99.90;;;;;;4947085;29;20024;-86
2022/07/01 01:01:27;;;;;;;8.07;6.88;;;24.70;99.90;;;;;;4943921;29;20030;-86
2022/07/01 01:03:54;;;;;;;9.98;7.32;;;24.70;99.90;;;;;;4946335;29;20053;-85
2022/07/01 01:06:20;;;;;;;10.38;7.82;;;24.70;99.90;;;;;;4948150;29;20032;-85
2022/07/01 01:08:46;;;;;;;9.85;7.25;;;24.70;99.90;;;;;;4956992;28;20047;-86
2022/07/01 01:11:13;;;;;;;12.23;7.38;;;24.70;99.90;;;;;;4945387;29;20035;-86
2022/07/01 01:13:39;;;;;;;11.40;7.28;;;24.60;99.90;;;;;;4945906;29;20046;-85
2022/07/01 01:16:05;;;;;;;12.15;7.40;;;24.60;99.90;;;;;;4944518;29;20039;-86
2022/07/01 01:18:31;;;;;;;13.90;7.85;;;24.60;99.90;;;;;;4943139;29;20449;-86
2022/07/01 01:20:57;;;;;;;9.45;7.13;;;24.60;99.90;;;;;;4943704;29;20086;-85
2022/07/01 01:23:22;;;;;;;10.27;7.78;;;24.60;99.90;;;;;;4943967;29;20153;-87
2022/07/01 01:25:48;;;;;;;9.55;7.40;;;24.60;99.90;;;;;;4945423;29;20051;-85
2022/07/01 01:28:14;;;;;;;10.63;7.72;;;24.60;99.90;;;;;;4946669;29;20070;-85
2022/07/01 01:30:40;;;;;;;12.52;7.85;;;24.50;99.90;;;;;;4945076;29;20028;-85
2022/07/01 01:33:11;;;;;;;19.73;8.20;;;24.50;99.90;;;;;;4947508;29;20058;-86
2022/07/01 01:35:37;;;;;;;10.50;7.97;;;24.50;99.90;;;;;;4946788;29;20048;-86
2022/07/01 01:38:03;;;;;;;10.85;7.60;;;24.50;99.90;;;;;;4950839;29;20464;-84
2022/07/01 01:40:29;;;;;;;12.07;7.60;;;24.50;99.90;;;;;;4956877;29;20055;-82
2022/07/01 01:42:55;;;;;;;10.95;7.38;;;24.40;99.90;;;;;;4949313;29;20024;-85
2022/07/01 01:45:20;;;;;;;9.65;7.68;;;24.40;99.90;;;;;;4947088;29;20047;-82
2022/07/01 01:47:47;;;;;;;10.85;7.85;;;24.40;99.90;;;;;;4949514;29;20095;-83
2022/07/01 01:50:14;;;;;;;14.07;8.00;;;24.40;99.90;;;;;;4951628;29;20040;-85
2022/07/01 01:52:43;;;;;;;10.90;8.48;;;24.40;99.90;;;;;;4944396;29;20469;-85
2022/07/01 01:55:10;;;;;;;12.63;7.78;;;24.40;99.90;;;;;;4944917;29;20032;-85
2022/07/01 01:57:36;;;;;;;12.63;7.72;;;24.40;99.90;;;;;;4951940;29;20105;-85
2022/07/01 02:00:04;;;;;;;13.15;7.68;;;24.40;99.90;;;;;;4950693;29;20039;-86
2022/07/01 02:02:37;;;;;;;8.10;7.20;;;24.40;99.90;;;;;;4946735;29;20115;-87
2022/07/01 02:05:05;;;;;;;17.83;8.65;;;24.40;99.90;;;;;;4944533;29;20063;-85
2022/07/01 02:07:30;;;;;;;11.45;7.28;;;24.30;99.90;;;;;;4946266;29;20084;-86
2022/07/01 02:09:56;;;;;;;11.55;7.63;;;24.30;99.90;;;;;;4944205;29;20031;-83
2022/07/01 02:12:22;;;;;;;10.60;8.32;;;24.20;99.90;;;;;;4946458;29;20043;-86
2022/07/01 02:14:48;;;;;;;11.15;7.97;;;24.20;99.90;;;;;;4943848;29;20118;-86
2022/07/01 02:17:13;;;;;;;9.98;8.30;;;24.20;99.90;;;;;;4944383;29;20142;-86
2022/07/01 02:19:39;;;;;;;11.95;7.53;;;24.20;99.90;;;;;;4942252;29;20063;-85
2022/07/01 02:22:05;;;;;;;10.50;7.85;;;24.10;99.90;;;;;;4950162;28;20078;-82
2022/07/01 02:24:31;;;;;;;12.73;8.20;;;24.10;99.90;;;;;;4955423;28;20036;-84
2022/07/01 02:26:56;;;;;;;12.07;8.23;;;24.10;99.90;;;;;;4954263;29;20036;-86
2022/07/01 02:29:22;;;;;;;14.60;7.82;;;24.10;99.90;;;;;;4946461;29;20095;-86
2022/07/01 02:31:48;;;;;;;10.05;7.90;;;24.10;99.90;;;;;;4945272;29;20024;-85
2022/07/01 02:34:14;;;;;;;11.85;8.15;;;24.10;99.90;;;;;;4942585;29;20036;-86
2022/07/01 02:36:39;;;;;;;12.88;8.43;;;24.10;99.90;;;;;;4950484;29;20067;-85
2022/07/01 02:39:05;;;;;;;11.05;8.05;;;24.10;99.90;;;;;;4952661;29;20027;-84
2022/07/01 02:41:31;;;;;;;11.63;8.77;;;24.10;99.90;;;;;;4957321;28;20070;-83
2022/07/01 02:43:57;;;;;;;15.98;8.23;;;24.10;99.90;;;;;;4959288;28;20086;-84
2022/07/01 02:46:23;;;;;;;13.93;8.43;;;24.10;99.90;;;;;;4956401;28;20042;-87
2022/07/01 02:48:48;;;;;;;16.88;9.07;;;24.00;99.90;;;;;;4942906;29;20503;-85
2022/07/01 02:51:14;;;;;;;14.05;8.65;;;24.00;99.90;;;;;;4944025;29;20059;-86
2022/07/01 02:53:40;;;;;;;15.13;8.13;;;24.00;99.90;;;;;;4948871;29;20020;-83
2022/07/01 02:56:06;;;;;;;11.60;8.27;;;23.90;99.90;;;;;;4957708;28;20043;-83
2022/07/01 02:58:31;;;;;;;12.27;8.98;;;23.90;99.90;;;;;;4957925;29;20087;-83
2022/07/01 03:00:57;;;;;;;14.45;9.50;;;23.90;99.90;;;;;;4941719;29;20028;-83
2022/07/01 03:03:23;;;;;;;24.13;9.88;;;23.90;99.90;;;;;;4942478;28;20099;-84
2022/07/01 03:05:49;;;;;;;12.95;9.07;;;23.90;99.90;;;;;;4948966;28;20032;-85
2022/07/01 03:08:15;;;;;;;17.38;10.60;;;23.90;99.90;;;;;;4945832;29;20143;-86
2022/07/01 03:10:40;;;;;;;15.38;9.85;;;23.90;99.90;;;;;;4947706;29;20027;-87
2022/07/01 03:13:06;;;;;;;17.75;10.60;;;23.90;99.90;;;;;;4946978;29;20031;-87
2022/07/01 03:15:32;;;;;;;21.08;10.80;;;23.90;99.90;;;;;;4946823;29;20372;-85
2022/07/01 03:17:58;;;;;;;15.70;10.48;;;23.80;99.90;;;;;;4945664;29;20024;-86
2022/07/01 03:20:23;;;;;;;17.50;10.80;;;23.80;99.90;;;;;;4943754;29;20047;-86
2022/07/01 03:22:50;;;;;;;11.10;9.52;;;23.70;99.90;;;;;;4943132;29;20039;-85
2022/07/01 03:25:17;;;;;;;15.65;9.88;;;23.70;99.90;;;;;;4943213;29;20086;-83
2022/07/01 03:27:47;;;;;;;15.05;10.75;;;23.60;99.90;;;;;;4943373;29;20066;-87
2022/07/01 03:30:14;;;;;;;16.48;10.43;;;23.60;99.90;;;;;;4944989;29;20032;-85
2022/07/01 03:32:40;;;;;;;14.45;10.05;;;23.60;99.90;;;;;;4941847;29;20038;-84
2022/07/01 03:35:35;;;;;;;13.73;10.82;;;23.60;99.90;;;;;;4945163;29;20060;-83
2022/07/01 03:37:52;;;;;;;16.70;11.10;;;23.60;99.90;;;;;;4954725;28;20559;-86
2022/07/01 03:40:18;;;;;;;18.35;11.27;;;23.60;99.90;;;;;;4944740;29;20075;-87
2022/07/01 03:42:43;;;;;;;16.60;10.10;;;23.60;99.90;;;;;;4943916;29;20233;-83
2022/07/01 03:45:09;;;;;;;13.68;10.07;;;23.60;99.90;;;;;;4945686;29;20039;-87
2022/07/01 03:47:35;;;;;;;14.75;10.32;;;23.60;99.90;;;;;;4945259;29;20152;-86
2022/07/01 03:50:01;;;;;;;13.13;10.00;;;23.60;99.90;;;;;;4944648;29;20027;-84
2022/07/01 03:52:27;;;;;;;24.40;11.25;;;23.70;99.90;;;;;;4942808;29;20127;-86
2022/07/01 03:54:53;;;;;;;16.15;10.20;;;23.70;99.90;;;;;;4943471;29;20059;-84
2022/07/01 03:57:21;;;;;;;14.70;10.07;;;23.70;99.90;;;;;;4942587;29;20186;-85
2022/07/01 03:59:46;;;;;;;17.98;10.40;;;23.60;99.90;;;;;;4943289;29;20054;-83
2022/07/01 04:02:12;;;;;;;15.80;9.88;;;23.70;99.90;;;;;;4942635;29;20035;-86
2022/07/01 04:04:38;;;;;;;16.67;10.73;;;23.70;99.90;;;;;;4942945;29;20024;-86
2022/07/01 04:07:06;;;;;;;17.48;10.73;;;23.70;99.90;;;;;;4941840;29;20036;-86
2022/07/01 04:09:32;;;;;;;16.55;10.63;;;23.80;99.90;;;;;;4942468;29;20079;-86
2022/07/01 04:11:58;;;;;;;18.27;10.73;;;23.90;99.90;;;;;;4945865;29;20020;-87
2022/07/01 04:14:24;;;;;;;15.50;10.07;;;23.90;99.90;;;;;;4945629;29;20497;-86
2022/07/01 04:16:51;;;;;;;15.52;10.32;;;24.00;99.90;;;;;;4957752;28;20100;-83
2022/07/01 04:19:17;;;;;;;16.35;10.60;;;24.10;99.90;;;;;;4961177;28;20212;-81
2022/07/01 04:24:28;;;;;;;20.07;10.40;;;24.20;99.90;;;;;;4956127;29;20039;-83
2022/07/01 04:26:54;;;;;;;15.40;10.15;;;24.20;99.90;;;;;;4955718;29;20051;-88
2022/07/01 04:29:21;;;;;;;17.27;9.65;;;24.30;99.90;;;;;;4957099;29;20032;-83
2022/07/01 04:31:47;;;;;;;18.48;10.38;;;24.40;99.90;;;;;;4956699;29;20015;-85
2022/07/01 04:34:13;;;;;;;15.70;10.57;;;24.50;99.90;;;;;;4955389;29;20036;-85
2022/07/01 04:36:39;;;;;;;16.60;10.32;;;24.50;99.90;;;;;;4952378;29;20059;-84
2022/07/01 04:39:06;;;;;;;15.73;10.00;;;24.60;99.90;;;;;;4951705;28;20046;-86
2022/07/01 04:44:17;;;;;;;;;;;24.80;99.90;;;;;;4950256;29;20032;-88
2022/07/01 04:46:43;;;;;;;15.55;10.15;;;24.90;99.90;;;;;;4948200;29;19906;-87
2022/07/01 04:49:09;;;;;;;14.82;10.05;;;25.00;99.90;;;;;;4944398;29;20028;-85
2022/07/01 04:51:35;;;;;;;13.85;9.05;;;25.20;99.90;;;;;;4958010;28;20020;-86
2022/07/01 04:54:02;;;;;;;13.80;9.50;;;25.40;99.90;;;;;;4948409;29;20058;-85
2022/07/01 04:56:28;;;;;;;12.23;8.70;;;26.00;99.90;;;;;;4950133;29;20028;-84
2022/07/01 04:58:55;;;;;;;11.73;7.35;;;26.60;99.90;;;;;;4951812;29;20023;-84
2022/07/01 05:01:22;;;;;;;12.25;6.90;;;27.20;99.90;;;;;;4955373;28;20102;-86
2022/07/01 05:03:48;;;;;;;10.77;5.68;;;27.50;99.90;;;;;;4933047;29;20052;-86
2022/07/01 05:06:14;;;;;;;8.60;5.53;;;27.50;99.90;;;;;;4947599;29;20020;-85
2022/07/01 05:08:40;;;;;;;16.95;6.20;;;27.40;99.90;;;;;;4945843;29;20028;-86
2022/07/01 05:11:06;;;;;;;6.25;4.53;;;27.30;99.90;;;;;;4929287;29;20024;-86
2022/07/01 05:13:33;;;;;;;9.00;4.60;;;27.40;99.90;;;;;;4946035;29;20048;-86
2022/07/01 05:16:00;;;;;;;10.45;4.18;;;27.30;99.90;;;;;;4950974;28;20040;-83
2022/07/01 05:23:54;;;;;;;4.37;2.47;;;27.00;99.60;;;;;;4947846;29;20083;-85
2022/07/01 05:26:20;;;;;;;6.53;2.00;;;26.90;99.30;;;;;;4947579;29;20271;-83
2022/07/01 05:28:46;;;;;;;4.43;2.10;;;26.80;99.10;;;;;;4953303;29;20038;-85
2022/07/01 05:31:13;;;;;;;6.47;2.10;;;26.60;99.10;;;;;;4955708;29;20035;-86
2022/07/01 05:33:39;;;;;;;7.90;2.60;;;26.50;99.30;;;;;;4958860;28;20031;-85
2022/07/01 05:36:06;;;;;;;9.75;2.60;;;26.40;99.40;;;;;;4956106;29;20035;-88
2022/07/01 05:38:32;;;;;;;7.05;2.17;;;26.40;99.60;;;;;;4953962;29;20031;-87
2022/07/01 05:40:57;;;;;;;11.65;1.67;;;26.40;99.50;;;;;;4954195;29;20024;-86
2022/07/01 05:43:23;;;;;;;8.93;1.70;;;26.40;99.40;;;;;;4957309;29;20043;-85
2022/07/01 05:45:49;;;;;;;14.50;1.65;;;26.30;99.40;;;;;;4956818;29;20059;-88
2022/07/01 05:48:15;;;;;;;3.60;1.77;;;26.50;99.20;;;;;;4951333;29;20035;-88
2022/07/01 05:50:41;;;;;;;6.03;1.20;;;26.50;99.20;;;;;;4947643;29;20099;-87
2022/07/01 05:53:07;;;;;;;7.72;1.48;;;26.40;99.10;;;;;;4948822;29;20032;-86
2022/07/01 05:55:33;;;;;;;5.05;1.60;;;26.20;99.30;;;;;;4951215;29;20063;-85
2022/07/01 05:58:01;;;;;;;7.47;1.40;;;26.20;99.30;;;;;;4957433;28;20227;-83
2022/07/01 06:00:27;;;;;;;8.05;1.77;;;26.30;99.30;;;;;;4959957;28;20026;-85
2022/07/01 06:02:54;;;;;;;12.77;2.33;;;26.20;99.40;;;;;;4958730;28;20087;-85
2022/07/01 06:05:20;;;;;;;17.10;2.50;;;26.40;99.40;;;;;;4959338;28;20031;-86
2022/07/01 06:07:46;;;;;;;11.48;2.20;;;26.50;99.20;;;;;;4958155;28;20054;-85
2022/07/01 06:10:11;;;;;;;12.95;2.10;;;26.30;99.10;;;;;;4956516;29;20027;-86
2022/07/01 06:12:38;;;;;;;9.10;1.90;;;26.30;99.40;;;;;;4955725;29;20086;-87
2022/07/01 06:15:09;;;;;;;6.10;1.98;;;26.30;99.40;;;;;;4957976;29;20019;-85
2022/07/01 06:17:36;;;;;;;11.75;2.10;;;26.40;99.30;;;;;;4958319;28;20071;-86
2022/07/01 06:20:02;;;;;;;5.03;1.98;;;26.40;99.40;;;;;;4955831;29;20095;-86
2022/07/01 06:22:27;;;;;;;11.65;2.58;;;26.30;99.50;;;;;;4952214;29;20040;-85
2022/07/01 06:24:53;;;;;;;10.45;2.15;;;26.20;99.70;;;;;;4977232;23;20078;-89
2022/07/01 06:27:19;;;;;;;12.88;1.90;;;26.10;99.90;;;;;;4958524;28;20023;-88
2022/07/01 06:29:46;;;;;;;28.27;2.97;;;25.90;99.90;;;;;;4959600;28;20039;-88
2022/07/01 06:32:11;;;;;;;14.93;2.47;;;25.80;99.90;;;;;;4959985;28;20093;-90
2022/07/01 06:34:39;;;;;;;23.63;3.35;;;25.80;99.90;;;;;;4958796;28;20019;-88
2022/07/01 06:37:14;;;;;;;22.40;2.78;;;25.80;99.90;;;;;;4959697;28;20024;-88
2022/07/01 06:39:41;;;;;;;11.43;2.72;;;25.70;99.90;;;;;;4959608;28;20043;-87
2022/07/01 06:42:08;;;;;;;15.63;3.28;;;25.80;99.90;;;;;;4943812;28;20499;-88
2022/07/01 06:44:34;;;;;;;7.65;2.97;;;25.70;99.90;;;;;;4959192;28;20027;-87
2022/07/01 06:47:00;;;;;;;7.60;3.00;;;25.70;99.90;;;;;;4958992;28;20061;-88
2022/07/01 06:49:26;;;;;;;11.73;2.55;;;25.90;99.90;;;;;;4959244;28;20043;-88
2022/07/01 06:51:51;;;;;;;7.85;2.63;;;25.80;99.90;;;;;;4943492;29;20023;-89
2022/07/01 06:54:17;;;;;;;9.90;2.90;;;25.90;99.90;;;;;;4958984;28;20110;-89
2022/07/01 06:56:43;;;;;;;15.27;3.08;;;26.00;99.90;;;;;;4959313;28;20039;-88
2022/07/01 06:59:09;;;;;;;6.82;3.08;;;26.10;99.90;;;;;;4959767;28;20034;-88
2022/07/01 07:01:35;;;;;;;7.55;3.00;;;26.10;99.90;;;;;;4959344;28;20015;-91
2022/07/01 07:04:01;;;;;;;12.93;3.30;;;26.10;99.90;;;;;;4959678;28;20023;-89
2022/07/01 07:06:27;;;;;;;8.07;2.78;;;26.10;99.90;;;;;;4958195;28;20039;-89
2022/07/01 07:08:53;;;;;;;19.73;3.33;;;26.10;99.90;;;;;;4959428;28;20019;-88
2022/07/01 07:11:19;;;;;;;15.30;3.08;;;26.10;99.90;;;;;;4959890;28;20036;-89
2022/07/01 07:13:45;;;;;;;12.02;3.47;;;26.20;99.90;;;;;;4959261;28;20043;-87
2022/07/01 07:16:11;;;;;;;11.95;3.20;;;26.20;99.90;;;;;;4959325;28;20033;-87
2022/07/01 07:18:40;;;;;;;4.28;3.17;;;26.20;99.90;;;;;;4958975;28;20055;-89
2022/07/01 07:21:06;;;;;;;10.02;3.35;;;26.20;99.90;;;;;;4959977;28;20076;-87
2022/07/01 07:23:32;;;;;;;8.80;3.40;;;26.40;99.90;;;;;;4960079;28;20023;-89
2022/07/01 07:25:58;;;;;;;7.90;3.22;;;26.30;99.90;;;;;;4959894;28;20031;-90
2022/07/01 07:28:24;;;;;;;8.93;3.28;;;26.40;99.90;;;;;;4943176;28;20150;-89
2022/07/01 07:30:50;;;;;;;11.82;3.95;;;26.50;99.90;;;;;;4959189;28;20079;-89
2022/07/01 07:33:16;;;;;;;11.07;3.45;;;26.50;99.90;;;;;;4959774;28;20034;-88
2022/07/01 07:35:43;;;;;;;12.30;3.70;;;26.40;99.90;;;;;;4958948;28;20038;-89
2022/07/01 07:38:10;;;;;;;9.40;4.22;;;26.50;99.90;;;;;;4959427;28;20051;-88
2022/07/01 07:40:36;;;;;;;11.77;3.72;;;26.60;99.90;;;;;;4943111;28;20016;-89
2022/07/01 07:43:03;;;;;;;9.85;3.58;;;26.50;99.90;;;;;;4958380;28;20027;-87
2022/07/01 07:45:32;;;;;;;16.15;4.00;;;26.40;99.90;;;;;;4960198;28;20020;-90
2022/07/01 07:47:58;;;;;;;10.55;3.47;;;26.30;99.90;;;;;;4963419;28;20031;-88
2022/07/01 07:50:24;;;;;;;9.25;3.55;;;26.30;99.90;;;;;;4963375;28;20016;-90
2022/07/01 07:52:53;;;;;;;11.98;3.95;;;26.40;99.90;;;;;;4962430;28;20032;-91
2022/07/01 07:55:19;;;;;;;23.73;4.22;;;26.40;99.90;;;;;;4945319;28;20072;-88
2022/07/01 07:57:45;;;;;;;14.95;3.90;;;26.10;99.90;;;;;;4961360;28;20032;-90
2022/07/01 08:00:13;;;;;;;9.35;4.10;;;26.30;99.90;;;;;;4962353;28;20026;-89
2022/07/01 08:02:40;;;;;;;13.35;3.85;;;26.50;99.90;;;;;;4962423;28;20087;-88
2022/07/01 08:05:08;;;;;;;7.22;3.40;;;26.50;99.90;;;;;;4962174;28;20024;-89
2022/07/01 08:07:41;;;;;;;9.98;4.10;;;26.70;99.90;;;;;;4962359;28;20020;-89
2022/07/01 08:10:10;;;;;;;12.25;3.90;;;26.70;99.90;;;;;;4945987;28;20031;-87
2022/07/01 08:12:36;;;;;;;11.43;4.13;;;26.80;99.90;;;;;;4961688;28;20022;-88
2022/07/01 08:15:03;;;;;;;15.55;4.38;;;26.90;99.90;;;;;;4960457;28;20064;-88
2022/07/01 08:17:29;;;;;;;12.18;3.63;;;26.90;99.90;;;;;;4962112;28;20035;-87
2022/07/01 08:19:55;;;;;;;9.88;3.60;;;27.00;99.80;;;;;;4962131;28;20055;-88
2022/07/01 08:22:22;;;;;;;10.07;4.22;;;27.10;99.80;;;;;;4962344;28;20023;-88
2022/07/01 08:24:48;;;;;;;11.38;4.13;;;26.90;99.80;;;;;;4961237;28;20050;-88
2022/07/01 08:27:17;;;;;;;12.32;4.32;;;26.70;99.90;;;;;;4961309;28;20031;-88
2022/07/01 08:29:43;;;;;;;12.50;4.13;;;26.60;99.90;;;;;;4961523;28;20031;-87
2022/07/01 08:32:08;;;;;;;13.32;4.10;;;26.50;99.90;;;;;;4962268;28;20088;-88
2022/07/01 08:34:35;;;;;;;10.27;3.95;;;26.60;99.90;;;;;;4962041;28;20023;-89
2022/07/01 08:37:02;;;;;;;10.95;4.00;;;26.90;99.90;;;;;;4962155;29;20035;-90
2022/07/01 08:39:29;;;;;;;10.02;3.83;;;27.00;99.70;;;;;;4961437;28;20022;-88
2022/07/01 08:41:55;;;;;;;12.57;3.90;;;27.10;99.20;;;;;;4945664;28;20023;-88
2022/07/01 08:44:21;;;;;;;15.57;3.90;;;27.10;99.20;;;;;;4962024;28;20027;-89
2022/07/01 08:46:48;;;;;;;8.73;3.60;;;27.20;99.30;;;;;;4961930;28;20019;-87
2022/07/01 08:49:16;;;;;;;11.55;3.60;;;27.10;99.30;;;;;;4961965;28;20012;-86
2022/07/01 08:51:58;;;;;;;7.28;3.75;;;27.30;99.10;;;;;;4961976;28;20028;-87
2022/07/01 08:54:24;;;;;;;13.25;3.63;;;27.50;99.00;;;;;;4960708;28;20030;-88
2022/07/01 08:56:50;;;;;;;10.27;3.60;;;27.60;98.70;;;;;;4960591;28;20036;-89
2022/07/01 08:59:25;;;;;;;9.10;4.15;;;27.60;98.50;;;;;;4961193;28;20020;-88
2022/07/01 09:02:05;;;;;;;8.50;3.53;;;27.60;98.60;;;;;;4960841;28;20023;-87
2022/07/01 09:04:33;;;;;;;10.48;3.70;;;27.80;98.30;;;;;;4960458;28;20028;-88
2022/07/01 09:07:07;;;;;;;11.30;3.70;;;28.00;98.20;;;;;;4955938;29;20070;-87
2022/07/01 09:09:35;;;;;;;13.30;4.00;;;28.00;97.90;;;;;;4954588;29;20028;-87
2022/07/01 09:12:01;;;;;;;8.93;4.13;;;28.20;97.50;;;;;;4956809;29;20039;-88
2022/07/01 09:14:29;;;;;;;7.75;4.00;;;28.20;97.50;;;;;;4957264;29;20032;-88
2022/07/01 09:17:00;;;;;;;14.48;4.15;;;28.10;97.30;;;;;;4958769;28;20035;-88
2022/07/01 09:19:28;;;;;;;22.20;4.10;;;28.10;97.50;;;;;;4958523;28;20024;-88
2022/07/01 09:22:14;;;;;;;18.63;4.53;;;27.70;98.00;;;;;;4959071;28;20016;-89
2022/07/01 09:24:42;;;;;;;8.70;3.97;;;27.50;98.40;;;;;;4959389;29;20046;-90
2022/07/01 09:27:19;;;;;;;8.98;4.85;;;27.70;98.40;;;;;;4958363;29;20016;-89
2022/07/01 09:29:54;;;;;;;14.30;3.92;;;28.00;98.30;;;;;;4956881;29;20087;-89
2022/07/01 09:32:21;;;;;;;9.88;4.15;;;28.30;97.50;;;;;;4959790;28;20031;-87
2022/07/01 09:34:51;;;;;;;7.97;3.60;;;28.40;97.40;;;;;;4960286;28;20020;-88
2022/07/01 09:37:24;;;;;;;10.70;4.07;;;28.30;97.50;;;;;;4958798;28;20235;-88
2022/07/01 09:39:52;;;;;;;17.15;4.53;;;28.10;97.50;;;;;;4957861;29;20050;-88
2022/07/01 09:42:23;;;;;;;13.57;4.15;;;28.00;97.70;;;;;;4939943;29;20012;-88
2022/07/01 09:45:07;;;;;;;8.98;4.30;;;28.20;97.60;;;;;;4944423;29;20032;-88
2022/07/01 09:47:39;;;;;;;7.57;3.72;;;28.50;97.00;;;;;;4960329;28;20050;-88
2022/07/01 09:50:07;;;;;;;9.32;3.95;;;28.70;96.70;;;;;;4959929;28;20047;-88
2022/07/01 09:52:33;;;;;;;6.65;3.95;;;29.00;96.30;;;;;;4960124;28;20031;-89
2022/07/01 09:55:00;;;;;;;5.95;3.92;;;29.20;95.90;;;;;;4959740;28;20036;-88
2022/07/01 09:57:26;;;;;;;10.98;3.75;;;29.50;95.60;;;;;;4944211;29;20117;-87
2022/07/01 09:59:52;;;;;;;6.72;3.58;;;29.90;95.30;;;;;;4959900;28;20047;-87
2022/07/01 10:02:19;;;;;;;13.27;4.53;;;30.30;94.50;;;;;;4960133;28;20039;-88
2022/07/01 10:04:53;;;;;;;13.32;4.13;;;30.70;93.90;;;;;;4944278;28;20023;-88
2022/07/01 10:07:48;;;;;;;8.45;3.78;;;31.30;93.00;;;;;;4959369;28;20035;-88
2022/07/01 10:10:43;;;;;;;9.98;4.07;;;32.20;92.10;;;;;;4959289;28;20027;-90
2022/07/01 10:13:13;;;;;;;7.88;3.95;;;32.40;91.10;;;;;;5011318;23;20044;-87
2022/07/01 10:18:23;;;;;;;8.20;3.63;;;31.10;92.00;;;;;;4980825;23;20104;-88
2022/07/01 10:20:50;;;;;;;10.32;3.92;;;30.80;92.10;;;;;;4959437;28;20034;-88
2022/07/01 10:23:19;;;;;;;8.25;3.58;;;30.70;92.60;;;;;;4960199;28;20020;-87
2022/07/01 10:25:47;;;;;;;11.13;3.45;;;31.10;92.10;;;;;;4943683;28;20027;-87
2022/07/01 10:28:21;;;;;;;9.73;3.88;;;31.50;91.50;;;;;;4943509;28;20016;-87
2022/07/01 10:30:55;;;;;;;5.72;3.10;;;32.10;91.00;;;;;;4959134;28;20035;-87
2022/07/01 10:33:27;;;;;;;;;;;32.40;90.00;;;;;;4959310;28;20028;-88
2022/07/01 10:35:53;;;;;;;7.72;3.58;;;33.70;89.10;;;;;;4959346;28;19917;-86
2022/07/01 10:38:19;;;;;;;5.68;3.20;;;35.80;84.90;;;;;;4958816;28;20027;-88
2022/07/01 10:40:49;;;;;;;7.60;3.08;;;37.70;80.20;;;;;;4959122;28;20019;-89
2022/07/01 10:43:31;;;;;;;5.95;2.90;;;39.20;75.20;;;;;;4957605;28;20016;-89
2022/07/01 10:45:57;;;;;;;8.25;3.15;;;39.30;71.40;;;;;;4957778;28;20036;-89
2022/07/01 10:48:24;;;;;;;11.05;3.42;;;39.80;69.70;;;;;;4951947;29;20463;-88
2022/07/01 10:50:51;;;;;;;10.02;2.97;;;41.00;67.30;;;;;;4952215;29;20032;-88
2022/07/01 10:53:18;;;;;;;6.45;2.83;;;41.00;65.70;;;;;;4949609;29;20082;-89
2022/07/01 10:55:47;;;;;;;9.50;2.83;;;40.60;65.00;;;;;;4950088;29;20035;-87
2022/07/01 10:58:14;;;;;;;6.57;2.50;;;40.10;65.00;;;;;;4955546;29;20011;-88
2022/07/01 11:00:44;;;;;;;6.68;2.75;;;40.40;65.00;;;;;;4955171;29;20036;-89
2022/07/01 11:03:17;;;;;;;5.63;2.85;;;40.60;64.30;;;;;;4953827;29;20070;-90
2022/07/01 11:05:45;;;;;;;5.18;2.88;;;40.60;64.10;;;;;;4952100;29;20086;-89
2022/07/01 11:08:11;;;;;;;5.50;2.50;;;41.20;63.40;;;;;;4936014;29;20099;-88
2022/07/01 11:10:39;;;;;;;7.28;2.70;;;42.40;61.50;;;;;;4958033;28;20092;-87
2022/07/01 11:13:05;;;;;;;9.27;2.70;;;42.60;60.20;;;;;;4957091;28;20028;-87
2022/07/01 11:15:31;;;;;;;4.32;2.30;;;43.40;59.10;;;;;;4958215;28;20099;-88
2022/07/01 11:17:59;;;;;;;5.95;2.30;;;41.30;59.00;;;;;;4958730;28;20059;-88
2022/07/01 11:20:26;;;;;;;5.13;2.70;;;39.80;62.00;;;;;;4958583;28;20034;-88
2022/07/01 11:23:02;;;;;;;6.38;2.97;;;41.30;60.70;;;;;;4942237;28;20074;-90
2022/07/01 11:25:30;;;;;;;8.73;2.38;;;42.80;59.10;;;;;;4955309;28;20050;-88
2022/07/01 11:27:56;;;;;;;6.32;2.80;;;43.40;57.90;;;;;;4948023;29;20125;-88
2022/07/01 11:30:23;;;;;;;5.50;2.47;;;44.10;56.60;;;;;;4950926;29;20034;-88
2022/07/01 11:32:59;;;;;;;2.95;2.20;;;43.80;56.30;;;;;;4944445;29;20034;-89
2022/07/01 11:41:06;;;;;;;4.35;2.50;;;45.20;54.80;;;;;;4946798;29;20035;-89
2022/07/01 11:43:35;;;;;;;5.45;2.92;;;46.00;53.60;;;;;;4944801;29;20028;-88
2022/07/01 11:46:02;;;;;;;10.73;3.05;;;45.80;52.90;;;;;;4943315;29;20019;-88
2022/07/01 11:48:43;;;;;;;6.03;2.80;;;43.50;54.20;;;;;;4943751;29;20064;-88
2022/07/01 11:51:14;;;;;;;5.15;2.88;;;42.80;55.80;;;;;;4945297;29;20139;-89
2022/07/01 11:53:51;;;;;;;2.88;2.60;;;44.20;55.20;;;;;;4948768;29;20036;-91
2022/07/01 11:56:28;;;;;;;4.43;3.05;;;45.20;54.10;;;;;;4958398;28;20056;-88
2022/07/01 11:58:55;;;;;;;6.53;2.97;;;44.80;53.30;;;;;;4958539;28;20087;-88
2022/07/01 12:01:25;;;;;;;5.47;3.15;;;43.30;54.50;;;;;;4958496;28;20067;-88
2022/07/01 12:03:53;;;;;;;14.55;8.27;;;41.50;55.90;;;;;;4942503;28;20031;-88
2022/07/01 12:06:19;;;;;;;6.82;3.03;;;40.10;57.10;;;;;;4958038;28;20030;-89
2022/07/01 12:08:46;;;;;;;3.58;2.70;;;40.30;58.00;;;;;;4958374;28;20165;-88
2022/07/01 12:11:13;;;;;;;5.82;2.65;;;42.10;56.60;;;;;;4955295;28;20031;-89
2022/07/01 12:13:39;;;;;;;4.35;2.47;;;43.90;54.80;;;;;;4951748;29;20031;-88
2022/07/01 12:16:12;;;;;;;4.32;2.50;;;45.70;52.60;;;;;;4948400;29;20099;-88
2022/07/01 12:18:38;;;;;;;5.38;2.72;;;46.10;51.90;;;;;;4951206;29;20125;-88
2022/07/01 12:21:04;;;;;;;5.95;2.80;;;46.80;51.40;;;;;;4948644;29;20031;-88
2022/07/01 12:23:32;;;;;;;17.23;2.78;;;46.50;51.30;;;;;;4951760;23;20032;-86
2022/07/01 12:25:58;;;;;;;5.07;2.40;;;47.00;51.10;;;;;;4936431;29;20054;-86
2022/07/01 12:28:38;;;;;;;4.97;2.65;;;47.00;51.30;;;;;;4953422;29;20091;-86
2022/07/01 12:31:06;;;;;;;9.27;3.00;;;47.80;50.70;;;;;;4956666;29;20040;-86
2022/07/01 12:33:48;;;;;;;7.35;2.65;;;48.10;50.20;;;;;;4958388;29;20012;-87
2022/07/01 12:36:15;;;;;;;5.57;2.70;;;48.20;49.70;;;;;;4960357;28;20036;-86
2022/07/01 12:38:42;;;;;;;4.90;2.42;;;48.50;49.50;;;;;;4959893;28;20015;-86
2022/07/01 12:41:27;;;;;;;5.20;2.67;;;48.60;48.60;;;;;;4959818;28;20038;-86
2022/07/01 12:43:53;;;;;;;7.18;2.65;;;47.90;49.20;;;;;;4960750;28;20095;-84
2022/07/01 12:46:30;;;;;;;4.38;2.55;;;47.50;48.70;;;;;;4960314;28;20047;-85
2022/07/01 12:48:57;;;;;;;4.10;2.60;;;46.90;48.90;;;;;;4960521;28;20043;-86
2022/07/01 12:51:30;;;;;;;6.55;3.00;;;45.80;50.00;;;;;;4960923;28;20026;-83
2022/07/01 12:53:55;;;;;;;5.05;2.65;;;44.20;51.00;;;;;;4960490;28;20016;-85
2022/07/01 12:56:24;;;;;;;7.85;2.60;;;42.90;51.90;;;;;;4952279;29;20411;-86
2022/07/01 12:58:52;;;;;;;7.18;3.17;;;41.90;53.10;;;;;;4944343;29;20134;-87
2022/07/01 13:01:18;;;;;;;10.73;3.05;;;40.90;55.00;;;;;;4945685;29;20019;-85